Latest Coastal Weather Observations for Hobart

IDT60701

Issued at 7:32 pm EST Wednesday 6 May 2026 (issued every 10 minutes, with the page automatically refreshed every 10 minutes)

About coastal observations | Map of coastal stations | Coastal observations for TAS | Marine services | Other Formats
Station Details ID: 094029 Name: HOBART (ELLERSLIE ROAD) Lat: -42.89 Lon: 147.33 Height: 50.5 m
Data from the previous 72 hours. | See also: Recent months at Hobart
Date/Time
EST
Wind Sea
Height
m
Swell Vis
km
Cloud Weather Temp
°C
Press
MSL
hPa
Rain since
9am
mm
Dir  Spd
kts
Gust
kts
Height
m
Period
s
Dir
06/07:30pm WSW 4 7 - - - - - - - 8.9 1007.7 4.0
06/07:00pm NW 3 5 - - - - - - - 9.2 1007.4 4.0
06/06:30pm WNW 5 8 - - - - - - - 9.3 1007.5 3.8
06/06:00pm SE 5 7 - - - - - - Rain 9.2 1006.5 3.2
06/05:30pm SW 6 10 - - - - - - - 9.1 1006.7 2.6
06/05:00pm SSW 13 22 - - - - - - - 10.1 1005.6 0.8
06/04:30pm SSW 18 25 - - - - - - - 11.3 1005.1 0.0
06/04:00pm SSW 15 26 - - - - - - - 12.5 1005.0 0.0
06/03:58pm SSW 15 26 - - - - - - - 12.6 1005.0 0.0
06/03:30pm SE 9 13 - - - - - - - 14.5 1005.3 0.0
06/03:00pm SSW 9 13 - - - - - - - 16.3 1005.3 0.0
06/02:30pm WNW 10 19 - - - - - - - 18.9 1005.8 0.0
06/02:00pm NW 12 18 - - - - - - - 18.8 1006.0 0.0
06/01:49pm NW 15 25 - - - - - - - 18.8 1006.1 0.0
06/01:30pm NW 8 17 - - - - - - - 18.7 1006.4 0.0
06/01:00pm W 8 13 - - - - - - - 18.1 1006.8 0.0
06/12:30pm NW 16 30 - - - - - - - 19.0 1007.0 0.0
06/12:00pm NW 17 28 - - - - - - - 19.2 1007.6 0.0
06/11:30am NW 19 30 - - - - - - - 18.0 1008.1 0.0
06/11:00am NW 16 29 - - - - - - - 17.8 1008.5 0.0
06/10:34am NW 15 27 - - - - - - - 17.5 1009.0 0.0
06/10:30am NW 14 24 - - - - - - - 17.4 1008.9 0.0
06/10:00am NNW 13 22 - - - - - - - 16.5 1009.2 0.0
06/09:30am NNW 11 17 - - - - - - - 16.4 1009.8 0.0
06/09:00am NW 11 17 - - - - - - - 15.7 1010.4 0.0
06/08:30am NNW 5 9 - - - - - - - 14.4 1010.7 0.0
06/08:00am NNW 7 11 - - - - - - - 13.9 1010.7 0.0
06/07:30am NNW 5 7 - - - - - - - 12.7 1010.4 0.0
06/07:00am NW 6 8 - - - - - - - 11.8 1010.5 0.0
06/06:30am NNW 8 10 - - - - - - - 12.3 1010.7 0.0
06/06:00am NNW 7 11 - - - - - - - 12.4 1010.9 0.0
06/05:30am NW 6 8 - - - - - - - 12.2 1011.3 0.0
06/05:00am NNW 8 11 - - - - - - - 12.6 1011.1 0.0
06/04:30am NW 8 11 - - - - - - - 12.0 1011.2 0.0
06/04:00am NNW 7 11 - - - - - - - 11.7 1011.5 0.0
06/03:30am NNW 11 14 - - - - - - - 12.1 1011.9 0.0
06/03:00am NNW 11 16 - - - - - - - 12.4 1012.3 0.0
06/02:30am NNW 11 15 - - - - - - - 12.4 1012.4 0.0
06/02:00am NNW 13 21 - - - - - - - 12.9 1012.5 0.0
06/01:30am NNW 12 18 - - - - - - - 12.8 1012.8 0.0
06/01:00am NNW 13 17 - - - - - - - 12.6 1013.1 0.0
06/12:30am NNW 12 19 - - - - - - - 12.5 1013.3 0.0
06/12:00am NNW 10 17 - - - - - - - 12.3 1013.5 0.0
 
Date/Time
EST
Wind Sea
Height
m
Swell Vis
km
Cloud Weather Temp
°C
Press
MSL
hPa
Rain since
9am
mm
Dir  Spd
kts
Gust
kts
Height
m
Period
s
Dir
05/11:30pm NNW 11 16 - - - - - - - 12.6 1013.7 0.0
05/11:00pm NNW 13 19 - - - - - - - 13.0 1014.0 0.0
05/10:30pm NW 10 16 - - - - - - - 13.0 1014.5 0.0
05/10:00pm NW 11 16 - - - - - - - 13.1 1014.6 0.0
05/09:30pm NNW 13 18 - - - - - - - 13.2 1014.9 0.0
05/09:00pm NNW 13 17 - - - - - - - 13.3 1014.8 0.0
05/08:30pm NNW 14 19 - - - - - - - 13.5 1014.8 0.0
05/08:00pm NNW 14 19 - - - - - - - 13.7 1014.8 0.0
05/07:30pm NNW 16 21 - - - - - - - 13.8 1014.9 0.0
05/07:00pm NNW 14 19 - - - - - - - 14.0 1014.8 0.0
05/06:30pm NNW 14 20 - - - - - - - 14.3 1014.4 0.0
05/06:00pm NNW 12 20 - - - - - - - 14.4 1014.5 0.0
05/05:30pm WNW 12 18 - - - - - - - 14.7 1014.4 0.0
05/05:00pm NW 13 18 - - - - - - - 14.9 1014.0 0.0
05/04:30pm W 6 11 - - - - - - - 15.5 1013.7 0.0
05/04:00pm NNW 13 17 - - - - - - - 16.1 1013.3 0.0
05/03:30pm NW 13 19 - - - - - - - 17.3 1012.7 0.0
05/03:00pm NW 15 21 - - - - - - - 18.0 1012.4 0.0
05/02:30pm NW 11 17 - - - - - - - 18.6 1011.9 0.0
05/02:00pm ESE 6 9 - - - - - - - 17.2 1011.8 0.0
05/01:30pm S 5 8 - - - - - - - 18.4 1011.4 0.0
05/01:00pm ESE 4 6 - - - - - - - 17.4 1011.6 0.0
05/12:30pm SSE 5 11 - - - - - - - 16.8 1011.6 0.0
05/12:00pm NW 13 19 - - - - - - - 17.5 1011.5 0.0
05/11:30am NNW 11 16 - - - - - - - 17.3 1011.5 0.0
05/11:00am NNW 4 9 - - - - - - - 17.5 1011.5 0.0
05/10:30am NNW 6 8 - - - - - - - 16.9 1011.5 0.0
05/10:00am N 6 9 - - - - - - - 14.8 1011.3 0.0
05/09:30am NNW 5 8 - - - - - - - 15.0 1011.1 0.0
05/09:00am NNW 6 9 - - - - - - - 12.8 1010.8 0.0
05/08:30am NNW 6 9 - - - - - - - 11.1 1010.7 0.0
05/08:00am NW 4 6 - - - - - - - 11.4 1010.2 0.0
05/07:30am NW 9 14 - - - - - - - 10.6 1009.7 0.0
05/07:00am NNW 5 7 - - - - - - - 10.4 1009.4 0.0
05/06:30am NW 10 14 - - - - - - - 10.8 1008.7 0.0
05/06:00am WNW 5 8 - - - - - - - 10.6 1008.3 0.0
05/05:30am NNW 4 5 - - - - - - - 10.8 1008.1 0.0
05/05:00am NNW 5 9 - - - - - - - 11.3 1007.9 0.0
05/04:30am SSW 2 5 - - - - - - - 11.5 1007.7 0.0
05/04:00am NW 3 6 - - - - - - - 11.7 1007.4 0.0
05/03:30am NW 4 6 - - - - - - - 11.4 1007.2 0.0
05/03:00am WNW 6 8 - - - - - - - 11.3 1007.0 0.0
05/02:30am N 7 9 - - - - - - - 11.3 1007.0 0.0
05/02:00am NNW 7 10 - - - - - - - 12.2 1007.2 0.0
05/01:30am N 8 11 - - - - - - - 11.7 1007.6 0.0
05/01:00am NW 5 8 - - - - - - - 11.4 1007.7 0.0
05/12:30am NW 4 6 - - - - - - - 11.8 1007.6 0.0
05/12:00am NNW 6 8 - - - - - - - 12.4 1007.5 0.0
 
Date/Time
EST
Wind Sea
Height
m
Swell Vis
km
Cloud Weather Temp
°C
Press
MSL
hPa
Rain since
9am
mm
Dir  Spd
kts
Gust
kts
Height
m
Period
s
Dir
04/11:30pm NNW 5 7 - - - - - - - 12.3 1008.0 0.0
04/11:00pm NW 4 6 - - - - - - - 12.9 1008.2 0.0
04/10:30pm SW 4 6 - - - - - - - 13.3 1008.4 0.0
04/10:00pm N 6 10 - - - - - - - 14.3 1008.1 0.0
04/09:30pm NNW 7 11 - - - - - - - 14.3 1008.2 0.0
04/09:00pm NNW 6 10 - - - - - - - 14.2 1008.1 0.0
04/08:30pm NNE 5 9 - - - - - - - 14.4 1007.9 0.0
04/08:00pm NNW 6 9 - - - - - - - 14.7 1007.9 0.0
04/07:30pm N 5 8 - - - - - - - 14.8 1007.9 0.0
04/07:00pm N 3 7 - - - - - - - 15.0 1007.7 0.0
04/06:30pm N 5 8 - - - - - - - 15.5 1007.5 0.0
04/06:00pm N 3 6 - - - - - - - 15.7 1007.2 0.0
04/05:30pm NNE 6 8 - - - - - - - 16.5 1006.9 0.0
04/05:00pm N 7 11 - - - - - - - 17.4 1006.8 0.0
04/04:30pm NNW 7 10 - - - - - - - 17.6 1006.8 0.0
04/04:00pm NNW 8 12 - - - - - - - 17.8 1006.9 0.0
04/03:30pm NW 6 10 - - - - - - - 18.9 1006.8 0.0
04/03:00pm WNW 10 13 - - - - - - - 17.8 1007.2 0.0
04/02:30pm NNW 13 18 - - - - - - - 18.3 1007.1 0.0
04/02:00pm NNW 11 17 - - - - - - - 18.8 1007.2 0.0
04/01:30pm NNW 10 15 - - - - - - - 19.0 1007.4 0.0
04/01:00pm NNW 11 17 - - - - - - - 20.4 1007.6 0.0
04/12:30pm N 9 13 - - - - - - - 20.2 1008.3 0.0
04/12:00pm NNW 12 17 - - - - - - - 19.4 1008.9 0.0
04/11:30am NW 11 15 - - - - - - - 19.4 1009.3 0.0
04/11:00am NW 11 14 - - - - - - - 18.6 1009.4 0.0
04/10:30am NNW 10 14 - - - - - - - 17.4 1009.3 0.0
04/10:00am NNW 11 16 - - - - - - - 15.8 1009.5 0.0
04/09:30am NNW 8 12 - - - - - - - 14.7 1009.8 0.0
04/09:00am NNW 8 11 - - - - - - - 14.5 1010.0 0.4
04/08:30am NW 7 10 - - - - - - - 14.0 1010.0 0.4
04/08:00am WSW 4 5 - - - - - - - 12.5 1010.0 0.4
04/07:30am W 5 9 - - - - - - - 12.2 1009.7 0.4
04/07:00am WNW 3 6 - - - - - - - 12.8 1009.3 0.4
04/06:30am WNW 4 7 - - - - - - - 13.4 1008.9 0.4
04/06:00am WNW 5 7 - - - - - - - 13.1 1008.9 0.4
04/05:30am WSW 4 7 - - - - - - - 13.3 1008.8 0.4
04/05:00am WSW 4 5 - - - - - - - 13.4 1008.8 0.4
04/04:30am WSW 1 4 - - - - - - - 13.6 1008.5 0.4
04/04:00am N 4 6 - - - - - - - 13.9 1008.1 0.4
04/03:30am SW 3 5 - - - - - - - 13.8 1008.2 0.4
04/03:00am N 4 6 - - - - - - - 14.3 1008.4 0.4
04/02:30am WNW 4 6 - - - - - - - 14.7 1008.6 0.4
04/02:00am CALM 0 4 - - - - - - - 15.5 1008.8 0.4
04/01:30am SW 1 3 - - - - - - - 15.7 1008.7 0.4
04/01:00am N 4 5 - - - - - - - 15.6 1008.9 0.4
04/12:30am WNW 4 5 - - - - - - - 16.3 1008.9 0.4
04/12:00am W 4 5 - - - - - - - 16.4 1009.2 0.4
 
Date/Time
EST
Wind Sea
Height
m
Swell Vis
km
Cloud Weather Temp
°C
Press
MSL
hPa
Rain since
9am
mm
Dir  Spd
kts
Gust
kts
Height
m
Period
s
Dir
03/11:30pm WNW 4 5 - - - - - - - 16.3 1009.4 0.4
03/11:00pm NNW 5 8 - - - - - - - 16.6 1009.5 0.4
03/10:30pm NNW 7 10 - - - - - - - 16.9 1009.4 0.4
03/10:00pm N 9 13 - - - - - - - 17.4 1009.7 0.4
03/09:30pm NNW 8 12 - - - - - - - 16.8 1009.1 0.4
03/09:00pm NW 7 10 - - - - - - - 16.6 1009.3 0.4
03/08:30pm N 7 10 - - - - - - - 17.0 1009.4 0.4
03/08:00pm NNW 5 7 - - - - - - - 16.7 1009.2 0.4

Other formats

Comma delimited format used in spreadsheet applications
http://www.bom.gov.au/fwo/IDT60701/IDT60701.94970.axf

JavaScript Object Notation format (JSON) in row-major order
http://www.bom.gov.au/fwo/IDT60701/IDT60701.94970.json

Data quality

Most of these data are generated automatically and are frequently updated. Quality checks on data are not normally performed. It is possible for incorrect values to appear. Refer to information at About Latest Weather Observations and please check the disclaimer before using these data.